Time;durP1;ratioP1;P1;durP2;ratioP2;P2;SDS_P1;SDS_P2;PMS_P1;PMS_P2;Temp;Humidity;BMP_temperature;BMP_pressure;BME280_temperature;BME280_humidity;BME280_pressure;Samples;Min_cycle;Max_cycle;Signal;HPM_P1;HPM_P2
2021/12/14 00:01:38;;;;;;;129.20;48.38;;;;;;;2.69;100.00;101612.66;3444534;83;99159;-94
2021/12/14 00:06:41;;;;;;;127.30;48.83;;;;;;;2.72;100.00;101614.23;3486212;83;99252;-94
2021/12/14 00:16:48;;;;;;;144.57;50.50;;;;;;;2.72;100.00;101616.13;3501766;82;99585;-94
2021/12/14 00:21:52;;;;;;;148.07;50.37;;;;;;;2.73;100.00;101610.41;3488763;82;98740;-94
2021/12/14 00:26:57;;;;;;;144.03;53.27;;;;;;;2.74;100.00;101601.14;3446363;83;98722;-94
2021/12/14 00:32:04;;;;;;;118.00;48.87;;;;;;;2.76;100.00;101604.39;3471514;82;99005;-94
2021/12/14 00:37:10;;;;;;;130.43;46.95;;;;;;;2.77;100.00;101602.46;3455994;83;99530;-94
2021/12/14 00:42:12;;;;;;;134.33;47.67;;;;;;;2.75;100.00;101606.86;3446893;83;99357;-95
2021/12/14 00:47:13;;;;;;;117.17;49.40;;;;;;;2.75;100.00;101611.47;3434504;83;99248;-96
2021/12/14 00:52:15;;;;;;;138.13;53.10;;;;;;;2.74;100.00;101609.86;3397087;83;98873;-95
2021/12/14 00:57:17;;;;;;;144.37;52.40;;;;;;;2.74;100.00;101610.66;3444940;83;98945;-95
2021/12/14 01:02:23;;;;;;;114.60;46.70;;;;;;;2.75;100.00;101617.73;3445618;83;99453;-96
2021/12/14 01:07:28;;;;;;;134.40;50.13;;;;;;;2.76;100.00;101607.64;3467255;83;99891;-96
2021/12/14 01:12:44;;;;;;;116.73;46.70;;;;;;;2.77;100.00;101614.69;3459263;83;98875;-95
2021/12/14 01:17:54;;;;;;;121.47;47.40;;;;;;;2.78;100.00;101619.05;3448170;83;99783;-94
2021/12/14 01:22:47;;;;;;;132.53;48.77;;;;;;;2.76;100.00;101603.56;3447381;83;98397;-95
2021/12/14 01:27:55;;;;;;;108.13;42.43;;;;;;;2.76;100.00;101611.72;3444752;83;99365;-95
2021/12/14 01:33:04;;;;;;;97.93;41.07;;;;;;;2.76;100.00;101613.08;3447802;83;99536;-96
2021/12/14 01:38:32;;;;;;;126.27;46.67;;;;;;;2.74;100.00;101615.30;3453257;84;99009;-96
2021/12/14 01:43:26;;;;;;;109.80;42.40;;;;;;;2.74;100.00;101613.94;3452285;82;98813;-94
2021/12/14 01:48:27;;;;;;;106.00;43.63;;;;;;;2.76;100.00;101607.64;3443476;83;99309;-95
2021/12/14 01:53:28;;;;;;;111.60;41.67;;;;;;;2.76;100.00;101604.92;3448227;83;99289;-96
2021/12/14 01:58:41;;;;;;;96.93;39.57;;;;;;;2.78;100.00;101606.25;3436462;82;99580;-96
2021/12/14 02:03:56;;;;;;;99.73;40.93;;;;;;;2.76;100.00;101593.52;3480207;83;26431;-96
2021/12/14 02:09:02;;;;;;;98.97;37.40;;;;;;;2.77;100.00;101597.02;3454637;83;98832;-96
2021/12/14 02:14:05;;;;;;;90.07;35.45;;;;;;;2.76;100.00;101592.70;3462660;83;98903;-96
2021/12/14 02:19:13;;;;;;;87.77;34.87;;;;;;;2.78;100.00;101593.22;3460913;83;99071;-96
2021/12/14 02:24:19;;;;;;;86.87;37.10;;;;;;;2.77;100.00;101592.95;3457265;83;98167;-95
2021/12/14 02:29:37;;;;;;;85.45;34.58;;;;;;;2.77;100.00;101586.15;3444346;84;98923;-96
2021/12/14 02:34:53;;;;;;;72.30;31.50;;;;;;;2.76;100.00;101585.36;3451895;83;99768;-95
2021/12/14 02:40:14;;;;;;;71.40;29.97;;;;;;;2.77;100.00;101586.15;3454745;83;99045;-93
2021/12/14 02:45:08;;;;;;;70.63;29.80;;;;;;;2.79;100.00;101579.88;3446429;83;98485;-96
2021/12/14 02:50:10;;;;;;;71.47;30.63;;;;;;;2.78;100.00;101579.06;3446526;83;99251;-96
2021/12/14 02:55:22;;;;;;;61.53;27.27;;;;;;;2.79;100.00;101571.16;3452544;83;99043;-96
2021/12/14 03:00:28;;;;;;;58.53;26.77;;;;;;;2.81;100.00;101583.92;3444125;83;99399;-95
2021/12/14 03:05:35;;;;;;;53.48;25.72;;;;;;;2.81;100.00;101582.56;3470617;83;99032;-96
2021/12/14 03:10:53;;;;;;;58.38;24.72;;;;;;;2.84;100.00;101573.00;3469252;83;98732;-96
2021/12/14 03:15:48;;;;;;;;;;;;;;;2.85;100.00;101566.45;3459091;83;25877;-96
2021/12/14 03:21:09;;;;;;;50.17;23.87;;;;;;;2.85;100.00;101561.81;3454794;82;83992;-96
2021/12/14 03:26:15;;;;;;;52.15;23.73;;;;;;;2.85;100.00;101546.06;3494490;82;97995;-96
2021/12/14 03:31:26;;;;;;;52.27;26.23;;;;;;;2.87;100.00;101546.56;3498973;82;98879;-96
2021/12/14 05:01:10;;;;;;;58.33;25.93;;;;;;;2.94;100.00;101507.55;3387031;83;98925;-96
2021/12/14 05:06:19;;;;;;;70.92;33.25;;;;;;;2.93;100.00;101498.59;3432379;84;98281;-96
2021/12/14 05:11:31;;;;;;;70.03;33.63;;;;;;;2.92;100.00;101495.64;3430855;83;98990;-95
2021/12/14 05:16:35;;;;;;;55.23;25.30;;;;;;;2.94;100.00;101498.03;3382213;84;26153;-96
2021/12/14 05:21:49;;;;;;;53.63;23.38;;;;;;;2.96;100.00;101498.55;3473866;82;99252;-96
2021/12/14 05:27:03;;;;;;;55.00;23.70;;;;;;;2.97;100.00;101483.84;3363749;83;99016;-96
2021/12/14 06:03:06;;;;;;;61.05;25.25;;;;;;;3.07;100.00;101474.92;3399490;81;25787;-96
2021/12/14 06:37:03;;;;;;;61.40;24.93;;;;;;;3.26;100.00;101447.63;3399473;81;26718;-94
2021/12/14 06:42:07;;;;;;;59.13;26.00;;;;;;;3.28;100.00;101461.75;3419144;82;99158;-93
2021/12/14 06:47:08;;;;;;;61.67;23.83;;;;;;;3.30;100.00;101460.88;3452403;83;99002;-92
2021/12/14 06:52:09;;;;;;;59.43;23.97;;;;;;;3.31;100.00;101456.50;3417646;82;99054;-93
2021/12/14 06:57:10;;;;;;;51.03;25.27;;;;;;;3.34;100.00;101465.40;3449995;82;99243;-95
2021/12/14 07:02:12;;;;;;;58.73;25.57;;;;;;;3.38;100.00;101463.69;3449383;83;98409;-92
2021/12/14 07:07:15;;;;;;;61.00;26.00;;;;;;;3.41;100.00;101463.64;3431070;82;99479;-92
2021/12/14 07:12:24;;;;;;;65.65;26.77;;;;;;;3.45;100.00;101474.96;3450708;83;99462;-92
2021/12/14 07:17:41;;;;;;;62.47;26.50;;;;;;;3.48;100.00;101467.56;3445162;83;99048;-90
2021/12/14 07:28:19;;;;;;;56.50;22.73;;;;;;;3.52;100.00;101488.17;3440454;82;99188;-91
2021/12/14 07:33:31;;;;;;;51.50;23.03;;;;;;;3.54;100.00;101492.20;3529403;81;98933;-92
2021/12/14 07:38:44;;;;;;;64.55;26.87;;;;;;;3.60;100.00;101490.19;3510970;82;99973;-92
2021/12/14 07:43:53;;;;;;;61.17;26.83;;;;;;;3.64;100.00;101489.81;3523317;80;99468;-91
2021/12/14 07:49:03;;;;;;;51.73;23.40;;;;;;;3.70;100.00;101494.03;3519716;81;99078;-92
2021/12/14 07:54:21;;;;;;;52.30;21.13;;;;;;;3.74;100.00;101486.88;3543783;81;99024;-91
2021/12/14 07:59:27;;;;;;;46.60;20.83;;;;;;;3.76;100.00;101481.95;3520730;81;99091;-92
2021/12/14 08:04:38;;;;;;;52.70;22.87;;;;;;;3.79;100.00;101496.30;3510224;82;99019;-93
2021/12/14 08:09:51;;;;;;;53.80;24.63;;;;;;;3.78;100.00;101487.31;3504069;81;99011;-91
2021/12/14 08:15:12;;;;;;;52.60;27.00;;;;;;;3.81;100.00;101477.17;3527123;80;99405;-91
2021/12/14 08:20:20;;;;;;;57.10;24.30;;;;;;;3.83;100.00;101472.80;3511188;81;99386;-91
2021/12/14 08:25:33;;;;;;;63.27;28.97;;;;;;;3.83;100.00;101469.50;3529064;81;99119;-91
2021/12/14 08:30:38;;;;;;;66.90;29.47;;;;;;;3.85;100.00;101474.64;3516832;81;99097;-92
2021/12/14 08:35:42;;;;;;;61.73;27.53;;;;;;;3.86;100.00;101463.99;3524429;81;99117;-91
2021/12/14 08:40:48;;;;;;;49.97;24.40;;;;;;;3.88;100.00;101468.59;3421918;83;99082;-91
2021/12/14 08:45:58;;;;;;;64.70;27.40;;;;;;;3.94;100.00;101478.27;3406337;83;99227;-91
2021/12/14 08:51:13;;;;;;;63.68;28.32;;;;;;;3.98;100.00;101477.33;3391587;84;99257;-91
2021/12/14 08:56:16;;;;;;;73.63;28.80;;;;;;;4.03;100.00;101477.76;3527227;82;99137;-92
2021/12/14 09:01:22;;;;;;;72.43;29.23;;;;;;;4.08;100.00;101484.45;3411551;82;99692;-90
2021/12/14 09:06:30;;;;;;;65.97;30.77;;;;;;;4.10;100.00;101481.67;3442669;83;99140;-91
2021/12/14 09:11:35;;;;;;;72.95;32.20;;;;;;;4.12;100.00;101489.54;3420748;83;98517;-91
2021/12/14 09:16:38;;;;;;;66.97;30.73;;;;;;;4.17;100.00;101489.42;3454214;82;98744;-91
2021/12/14 09:21:44;;;;;;;76.63;31.63;;;;;;;4.20;100.00;101502.44;3446019;83;98931;-90
2021/12/14 09:26:51;;;;;;;76.45;34.30;;;;;;;4.22;100.00;101492.84;3442577;83;99105;-91
2021/12/14 09:31:56;;;;;;;95.20;43.10;;;;;;;4.24;100.00;101489.79;3437713;83;99053;-90
2021/12/14 09:36:59;;;;;;;97.37;44.40;;;;;;;4.27;100.00;101485.88;3427334;83;99336;-90
2021/12/14 09:42:05;;;;;;;86.80;41.13;;;;;;;4.32;100.00;101489.06;3464868;82;99022;-91
2021/12/14 09:47:14;;;;;;;95.35;39.67;;;;;;;4.35;100.00;101482.98;3443282;83;26345;-91
2021/12/14 09:52:21;;;;;;;79.23;36.10;;;;;;;4.40;100.00;101480.95;3435613;83;99173;-91
2021/12/14 09:57:36;;;;;;;70.47;32.08;;;;;;;4.40;100.00;101470.59;3439026;83;99195;-90
2021/12/14 10:02:40;;;;;;;73.07;30.55;;;;;;;4.44;100.00;101471.59;3449298;83;99467;-90
2021/12/14 10:07:42;;;;;;;74.17;31.60;;;;;;;4.46;100.00;101463.89;3437988;82;99054;-90
2021/12/14 10:12:51;;;;;;;66.87;31.17;;;;;;;4.51;100.00;101458.31;3443721;82;99130;-91
2021/12/14 10:17:57;;;;;;;81.77;38.50;;;;;;;4.57;100.00;101459.25;3418636;83;99037;-91
2021/12/14 10:23:00;;;;;;;86.37;38.98;;;;;;;4.63;100.00;101461.30;3466638;82;98902;-91
2021/12/14 10:28:03;;;;;;;70.22;34.85;;;;;;;4.68;100.00;101456.50;3452516;82;98966;-90
2021/12/14 10:33:04;;;;;;;85.93;39.03;;;;;;;4.71;100.00;101450.44;3440821;83;99083;-90
2021/12/14 10:38:17;;;;;;;78.67;35.03;;;;;;;4.77;100.00;101443.73;3439272;83;99120;-93
2021/12/14 10:43:16;;;;;;;82.57;35.70;;;;;;;4.81;100.00;101443.91;3431215;83;99177;-93
2021/12/14 10:48:21;;;;;;;86.65;39.33;;;;;;;4.84;100.00;101438.62;3463757;82;99038;-89
2021/12/14 10:53:24;;;;;;;75.87;33.27;;;;;;;4.91;100.00;101429.99;3410303;84;33306;-89
2021/12/14 10:58:29;;;;;;;73.62;35.40;;;;;;;4.93;100.00;101435.92;3422911;83;99473;-91
2021/12/14 11:03:36;;;;;;;86.43;39.00;;;;;;;4.98;100.00;101435.78;3421505;83;98967;-93
2021/12/14 11:14:12;;;;;;;79.10;38.37;;;;;;;5.09;100.00;101421.56;3404569;83;99207;-93
2021/12/14 11:19:13;;;;;;;77.30;36.87;;;;;;;5.11;100.00;101413.84;3394189;84;99296;-92
2021/12/14 11:24:14;;;;;;;79.90;37.25;;;;;;;5.17;100.00;101408.48;3399619;84;99076;-92
2021/12/14 11:29:19;;;;;;;75.37;36.80;;;;;;;5.20;100.00;101404.32;3475506;82;98937;-93
2021/12/14 11:40:23;;;;;;;;;;;;;;;;;;;;;
2021/12/14 11:45:17;;;;;;;83.07;40.37;;;;;;;5.32;100.00;101407.23;3528333;81;98862;-93
2021/12/14 11:50:35;;;;;;;70.17;36.55;;;;;;;5.34;100.00;101411.25;3535603;81;99055;-96
2021/12/14 11:55:44;;;;;;;80.75;38.28;;;;;;;5.36;100.00;101413.09;3532495;82;99398;-90
2021/12/14 12:01:06;;;;;;;83.55;38.98;;;;;;;5.41;100.00;101403.97;3506046;81;99083;-92
2021/12/14 12:06:32;;;;;;;87.03;40.40;;;;;;;5.43;100.00;101401.16;3535818;81;33200;-93
2021/12/14 12:11:20;;;;;;;97.87;46.37;;;;;;;5.47;100.00;101394.50;3530775;82;98741;-92
2021/12/14 12:16:25;;;;;;;86.03;39.40;;;;;;;5.51;100.00;101403.66;3517795;81;99618;-94
2021/12/14 12:21:30;;;;;;;90.07;40.83;;;;;;;5.51;100.00;101406.40;3524920;81;99128;-92
2021/12/14 12:26:31;;;;;;;83.60;40.07;;;;;;;5.53;100.00;101414.52;3536539;81;99061;-93
2021/12/14 12:31:39;;;;;;;82.20;37.37;;;;;;;5.57;100.00;101408.62;3540773;81;99060;-91
2021/12/14 12:36:42;;;;;;;78.33;37.00;;;;;;;5.60;100.00;101412.65;3539928;81;99144;-93
2021/12/14 12:41:51;;;;;;;80.13;35.90;;;;;;;5.62;100.00;101419.40;3538736;80;99052;-93
2021/12/14 12:47:07;;;;;;;76.90;38.33;;;;;;;5.65;100.00;101413.31;3525465;81;98100;-92
2021/12/14 12:52:30;;;;;;;69.90;34.60;;;;;;;5.65;100.00;101409.77;3519933;80;99267;-91
2021/12/14 12:57:56;;;;;;;71.20;34.63;;;;;;;5.67;100.00;101413.00;3539742;81;99144;-89
2021/12/14 13:03:13;;;;;;;69.03;33.57;;;;;;;5.67;100.00;101406.17;3482139;82;99164;-89
2021/12/14 13:08:26;;;;;;;71.20;32.80;;;;;;;5.66;100.00;101405.36;3410642;84;99139;-91
2021/12/14 13:13:46;;;;;;;68.50;33.10;;;;;;;5.68;100.00;101406.41;3488643;82;99135;-90
2021/12/14 13:19:08;;;;;;;75.53;37.20;;;;;;;5.69;100.00;101402.55;3537497;81;99068;-95
2021/12/14 13:24:29;;;;;;;64.47;32.57;;;;;;;5.68;100.00;101401.73;3463520;83;26306;-95
2021/12/14 13:29:58;;;;;;;95.27;41.87;;;;;;;5.65;100.00;101394.75;3458404;83;99061;-95
2021/12/14 13:35:11;;;;;;;69.37;32.67;;;;;;;5.64;100.00;101402.16;3457731;82;99232;-95
2021/12/14 13:40:29;;;;;;;108.57;43.60;;;;;;;5.67;100.00;101389.78;3468615;82;100011;-94
2021/12/14 13:45:35;;;;;;;98.50;41.93;;;;;;;5.67;100.00;101398.77;3450239;83;99759;-93
2021/12/14 13:50:44;;;;;;;83.50;38.28;;;;;;;5.69;100.00;101399.81;3471438;82;99553;-94
2021/12/14 13:55:53;;;;;;;72.70;35.37;;;;;;;5.71;100.00;101402.47;3393034;84;99225;-93
2021/12/14 14:01:14;;;;;;;67.53;34.45;;;;;;;5.69;100.00;101409.38;3409199;83;99136;-93
2021/12/14 14:06:22;;;;;;;74.67;34.93;;;;;;;5.70;100.00;101407.70;3426062;83;33303;-94
2021/12/14 14:11:34;;;;;;;77.33;33.97;;;;;;;5.71;100.00;101413.39;3394754;82;99140;-92
2021/12/14 14:16:49;;;;;;;108.47;40.87;;;;;;;5.70;100.00;101412.34;3432500;83;99178;-94
2021/12/14 14:21:54;;;;;;;77.27;36.47;;;;;;;5.71;100.00;101407.94;3425524;83;99013;-94
2021/12/14 14:26:55;;;;;;;81.93;35.60;;;;;;;5.73;100.00;101415.81;3427273;83;99044;-94
2021/12/14 14:32:11;;;;;;;92.50;37.63;;;;;;;5.70;100.00;101431.46;3427816;83;99044;-92
2021/12/14 14:37:14;;;;;;;77.57;33.87;;;;;;;5.67;100.00;101434.27;3424184;83;99208;-93
2021/12/14 14:42:20;;;;;;;72.80;37.93;;;;;;;5.65;100.00;101437.08;3430361;84;98583;-92
2021/12/14 14:47:37;;;;;;;72.05;38.95;;;;;;;5.66;100.00;101440.05;3428434;84;98685;-90
2021/12/14 14:53:09;;;;;;;65.80;34.80;;;;;;;5.62;100.00;101451.38;3399784;84;98882;-91
2021/12/14 14:58:34;;;;;;;55.80;29.07;;;;;;;5.58;100.00;101453.95;3420063;83;99064;-89
2021/12/14 15:03:46;;;;;;;63.40;32.40;;;;;;;5.57;100.00;101444.13;3427359;84;99417;-91
2021/12/14 15:08:55;;;;;;;58.60;30.50;;;;;;;5.56;100.00;101446.63;3417041;83;99179;-91
2021/12/14 15:14:10;;;;;;;55.13;29.30;;;;;;;5.57;100.00;101446.86;3429066;83;99447;-92
2021/12/14 15:19:16;;;;;;;59.90;32.27;;;;;;;5.54;100.00;101448.88;3436274;83;99039;-90
2021/12/14 15:24:40;;;;;;;57.33;28.85;;;;;;;5.54;100.00;101443.42;3447898;83;26433;-92
2021/12/14 15:29:52;;;;;;;50.70;26.33;;;;;;;5.54;100.00;101432.50;3425398;83;98945;-91
2021/12/14 15:35:14;;;;;;;52.50;27.55;;;;;;;5.53;100.00;101440.45;3431447;83;98048;-92
2021/12/14 15:40:32;;;;;;;55.30;28.92;;;;;;;5.46;100.00;101428.39;3437441;81;99518;-92
2021/12/14 15:45:54;;;;;;;57.20;28.17;;;;;;;5.46;100.00;101435.22;3372278;82;99463;-91
2021/12/14 15:51:21;;;;;;;55.88;28.42;;;;;;;5.45;100.00;101443.95;3405272;83;99107;-90
2021/12/14 15:56:25;;;;;;;;;;;;;;;5.43;100.00;101442.66;3530213;81;99393;-91
2021/12/14 16:01:40;;;;;;;62.30;33.00;;;;;;;5.43;100.00;101453.58;3526409;81;84753;-90
2021/12/14 16:06:45;;;;;;;54.77;29.23;;;;;;;5.34;100.00;101454.92;3522109;81;33948;-90
2021/12/14 16:11:56;;;;;;;49.07;29.33;;;;;;;5.31;100.00;101456.94;3520083;81;98864;-92
2021/12/14 16:16:55;;;;;;;54.43;30.20;;;;;;;5.28;100.00;101464.38;3526297;81;98847;-92
2021/12/14 16:22:19;;;;;;;70.10;36.20;;;;;;;5.24;100.00;101470.80;3517309;81;99068;-91
2021/12/14 16:27:23;;;;;;;82.30;37.77;;;;;;;5.24;100.00;101465.34;3534586;82;99023;-91
2021/12/14 16:32:29;;;;;;;64.20;31.37;;;;;;;5.26;100.00;101456.27;3527972;81;99091;-91
2021/12/14 16:37:35;;;;;;;50.57;24.10;;;;;;;5.31;100.00;101463.77;3532207;81;99131;-92
2021/12/14 16:42:38;;;;;;;71.62;35.45;;;;;;;5.32;100.00;101476.83;3540636;81;98897;-91
2021/12/14 16:47:46;;;;;;;64.50;31.73;;;;;;;5.34;100.00;101467.20;3523745;81;98882;-92
2021/12/14 16:52:51;;;;;;;61.80;33.78;;;;;;;5.33;100.00;101469.70;3520225;81;98904;-91
2021/12/14 16:57:55;;;;;;;55.60;31.83;;;;;;;5.33;100.00;101465.61;3522227;81;99070;-91
2021/12/14 17:02:57;;;;;;;48.83;26.47;;;;;;;5.31;100.00;101474.68;3524759;80;99465;-91
2021/12/14 17:08:03;;;;;;;52.07;27.47;;;;;;;5.31;100.00;101479.33;3516428;81;99435;-92
2021/12/14 17:13:15;;;;;;;57.78;28.40;;;;;;;5.29;100.00;101483.73;3527411;79;99045;-92
2021/12/14 17:18:38;;;;;;;67.75;33.95;;;;;;;5.28;100.00;101487.58;3522403;82;99079;-91
2021/12/14 17:23:42;;;;;;;62.50;32.07;;;;;;;5.29;100.00;101475.54;3530210;81;98862;-91
2021/12/14 17:28:51;;;;;;;53.35;26.97;;;;;;;5.32;100.00;101478.20;3528140;81;98944;-91
2021/12/14 17:33:57;;;;;;;55.80;28.27;;;;;;;5.31;100.00;101485.59;3535323;81;99168;-90
2021/12/14 17:39:15;;;;;;;57.03;31.27;;;;;;;5.33;100.00;101492.08;3531566;81;99206;-92
2021/12/14 17:44:21;;;;;;;64.57;32.07;;;;;;;5.33;100.00;101480.62;3511700;81;99378;-91
2021/12/14 17:49:23;;;;;;;76.10;38.17;;;;;;;5.34;100.00;101486.89;3518921;79;99049;-92
2021/12/14 17:54:32;;;;;;;55.57;31.20;;;;;;;5.35;100.00;101498.05;3537288;81;33252;-93
2021/12/14 17:59:36;;;;;;;51.67;28.67;;;;;;;5.35;100.00;101505.66;3524789;81;98949;-91
2021/12/14 18:04:52;;;;;;;;;;;;;;;;;;;;;
2021/12/14 18:09:51;;;;;;;51.80;26.77;;;;;;;5.35;100.00;101513.06;3519703;80;99144;-94
2021/12/14 18:14:52;;;;;;;45.80;25.77;;;;;;;5.35;100.00;101522.04;3509508;81;99160;-91
2021/12/14 18:19:55;;;;;;;41.60;22.22;;;;;;;5.35;100.00;101517.95;3510176;81;99064;-89
2021/12/14 18:25:04;;;;;;;41.83;22.43;;;;;;;5.36;100.00;101526.95;3536122;81;99155;-91
2021/12/14 18:30:14;;;;;;;39.78;21.82;;;;;;;5.37;100.00;101532.65;3526223;80;98921;-90
2021/12/14 18:35:23;;;;;;;38.67;20.50;;;;;;;5.37;100.00;101536.20;3512056;81;99258;-91
2021/12/14 18:40:36;;;;;;;43.40;22.17;;;;;;;5.40;100.00;101526.58;3512005;81;99601;-91
2021/12/14 18:45:40;;;;;;;42.77;23.30;;;;;;;5.41;100.00;101532.27;3532440;80;99438;-91
2021/12/14 18:50:44;;;;;;;44.85;24.27;;;;;;;5.44;100.00;101531.08;3514043;81;99036;-91
2021/12/14 18:55:59;;;;;;;41.37;23.10;;;;;;;5.46;100.00;101536.23;3528186;81;99061;-90
2021/12/14 19:01:27;;;;;;;43.13;23.93;;;;;;;5.46;100.00;101531.55;3529649;81;99286;-92
2021/12/14 19:06:33;;;;;;;48.53;23.73;;;;;;;5.46;100.00;101530.77;3510123;81;33202;-91
2021/12/14 19:11:36;;;;;;;45.13;24.33;;;;;;;5.50;100.00;101533.09;3511539;81;99398;-91
2021/12/14 19:16:43;;;;;;;45.60;23.33;;;;;;;5.52;100.00;101530.87;3520501;80;98843;-91
2021/12/14 19:21:44;;;;;;;48.23;26.02;;;;;;;5.53;100.00;101534.66;3517519;81;99179;-89
2021/12/14 19:26:57;;;;;;;46.70;25.43;;;;;;;5.55;100.00;101535.67;3522136;79;99448;-88
2021/12/14 19:32:03;;;;;;;56.13;25.77;;;;;;;5.55;100.00;101544.69;3511742;81;99388;-87
2021/12/14 19:37:08;;;;;;;50.50;26.75;;;;;;;5.54;100.00;101543.08;3536959;81;99130;-86
2021/12/14 19:42:15;;;;;;;53.47;26.10;;;;;;;5.55;100.00;101545.23;3525219;81;98887;-86
2021/12/14 19:47:21;;;;;;;51.00;26.00;;;;;;;5.56;100.00;101548.23;3469233;82;98929;-85
2021/12/14 19:52:23;;;;;;;;;;;;;;;5.57;100.00;101546.53;3523409;81;99187;-89
2021/12/14 19:57:28;;;;;;;48.47;25.93;;;;;;;5.59;100.00;101553.86;3520377;81;84867;-88
2021/12/14 20:02:33;;;;;;;57.60;26.40;;;;;;;5.60;100.00;101560.93;3540348;80;99464;-93
2021/12/14 20:07:38;;;;;;;47.60;24.43;;;;;;;5.61;100.00;101557.07;3522452;80;99041;-92
2021/12/14 20:12:44;;;;;;;49.90;25.33;;;;;;;5.62;100.00;101561.98;3520292;81;98438;-90
2021/12/14 20:17:50;;;;;;;57.15;28.42;;;;;;;5.63;100.00;101565.74;3541914;81;99116;-90
2021/12/14 20:22:56;;;;;;;58.87;27.80;;;;;;;5.65;100.00;101574.44;3533353;81;98989;-91
2021/12/14 20:28:14;;;;;;;52.33;26.25;;;;;;;5.66;100.00;101573.31;3523319;80;99423;-89
2021/12/14 20:33:23;;;;;;;58.87;27.57;;;;;;;5.67;100.00;101578.23;3543487;80;99583;-91
2021/12/14 20:38:26;;;;;;;50.30;24.10;;;;;;;5.69;100.00;101574.61;3534291;81;99541;-90
2021/12/14 20:48:53;;;;;;;55.52;25.68;;;;;;;5.73;100.00;101574.23;3520015;81;98686;-90
2021/12/14 20:53:56;;;;;;;44.88;20.12;;;;;;;5.73;100.00;101575.02;3529803;82;99274;-91
2021/12/14 20:59:09;;;;;;;53.30;24.95;;;;;;;5.76;100.00;101576.31;3525397;81;99367;-91
2021/12/14 21:04:16;;;;;;;53.30;25.67;;;;;;;5.74;100.00;101575.25;3525600;81;99158;-91
2021/12/14 21:09:28;;;;;;;52.20;24.87;;;;;;;5.77;100.00;101573.81;3521751;81;99456;-89
2021/12/14 21:14:47;;;;;;;50.40;23.63;;;;;;;5.77;100.00;101577.36;3533962;82;99112;-91
2021/12/14 21:19:59;;;;;;;57.50;24.47;;;;;;;5.79;100.00;101577.05;3510420;81;99184;-91
2021/12/14 21:25:05;;;;;;;51.03;24.03;;;;;;;5.82;100.00;101571.79;3537747;81;99019;-92
2021/12/14 21:30:11;;;;;;;48.13;23.22;;;;;;;5.82;100.00;101577.80;3525312;81;99111;-90
2021/12/14 21:35:23;;;;;;;55.45;24.20;;;;;;;5.82;100.00;101574.52;3529292;81;98980;-90
2021/12/14 21:40:57;;;;;;;59.70;26.15;;;;;;;5.84;100.00;101575.58;3503996;81;98901;-90
2021/12/14 21:46:09;;;;;;;55.40;23.03;;;;;;;5.83;100.00;101584.90;3526496;81;99357;-90
2021/12/14 21:51:07;;;;;;;59.93;25.17;;;;;;;5.84;100.00;101586.50;3520553;81;99554;-92
2021/12/14 21:56:09;;;;;;;62.33;23.27;;;;;;;5.84;100.00;101594.70;3527979;81;99237;-91
2021/12/14 22:01:10;;;;;;;72.57;28.67;;;;;;;5.84;100.00;101602.31;3523725;81;99073;-90
2021/12/14 22:06:12;;;;;;;92.70;39.77;;;;;;;5.84;100.00;101609.15;3534068;81;26577;-90
2021/12/14 22:11:13;;;;;;;75.60;29.20;;;;;;;5.88;100.00;101614.78;3538236;81;98898;-89
2021/12/14 22:16:25;;;;;;;63.37;26.30;;;;;;;5.86;100.00;101617.85;3537913;80;98860;-91
2021/12/14 22:21:21;;;;;;;83.00;33.25;;;;;;;5.85;100.00;101614.84;3533871;81;99462;-90
2021/12/14 22:26:22;;;;;;;91.83;33.07;;;;;;;5.89;100.00;101619.94;3534929;81;99099;-91
2021/12/14 22:31:23;;;;;;;77.63;26.67;;;;;;;5.90;100.00;101616.66;3531582;82;99395;-90
2021/12/14 22:36:25;;;;;;;64.40;24.97;;;;;;;5.91;100.00;101619.08;3538992;81;33218;-90
2021/12/14 22:46:34;;;;;;;61.80;24.27;;;;;;;5.95;100.00;101619.24;3530427;82;98881;-91
2021/12/14 22:51:35;;;;;;;57.83;23.10;;;;;;;5.97;100.00;101615.62;3529390;81;99046;-92
2021/12/14 22:56:37;;;;;;;50.10;20.80;;;;;;;5.97;100.00;101621.91;3530802;80;99123;-90
2021/12/14 23:01:40;;;;;;;54.67;19.63;;;;;;;5.98;100.00;101636.35;3506098;82;99446;-90
2021/12/14 23:06:42;;;;;;;52.37;19.13;;;;;;;5.99;100.00;101640.69;3520736;82;33719;-91
2021/12/14 23:11:43;;;;;;;61.23;21.70;;;;;;;5.98;100.00;101639.09;3500286;81;98954;-90
2021/12/14 23:16:54;;;;;;;53.23;19.30;;;;;;;6.00;100.00;101639.59;3533528;81;98897;-90
2021/12/14 23:21:47;;;;;;;62.50;21.60;;;;;;;6.01;100.00;101649.39;3532723;81;99396;-91
2021/12/14 23:26:48;;;;;;;59.00;19.33;;;;;;;5.99;100.00;101642.88;3528702;81;99162;-91
2021/12/14 23:31:50;;;;;;;61.00;19.03;;;;;;;5.97;100.00;101648.41;3526707;79;99478;-92
2021/12/14 23:36:53;;;;;;;54.65;16.75;;;;;;;5.98;100.00;101646.73;3533820;81;33272;-90
2021/12/14 23:41:55;;;;;;;54.95;18.45;;;;;;;6.00;100.00;101647.21;3506945;82;99015;-91
2021/12/14 23:52:01;;;;;;;41.48;17.85;;;;;;;6.04;100.00;101641.36;3463873;83;99191;-91
2021/12/14 23:57:03;;;;;;;45.60;17.47;;;;;;;6.02;100.00;101644.17;3529883;82;99182;-91
